Aviation Digital Data Service (ADDS)

Output produced by METARs form (1546 UTC 12 December 2017)
found at http://www.aviationweather.gov/adds/metars/
 
KCBM 121456Z AUTO 33013G16KT 10SM CLR 10/02 A3012 RMK AO2 SLP203 T00950016 51026 TSNO $
KCBM 121356Z AUTO 32009KT 10SM CLR 08/01 A3011 RMK AO2 SLP200 T00800009 TSNO $
KCBM 121256Z AUTO 32008KT 10SM CLR 06/00 A3008 RMK AO2 SLP190 T00621001 TSNO $
KCBM 121156Z AUTO 31006KT 10SM CLR 05/M01 A3004 RMK AO2 SLP176 T00541011 10097 20054 52021 TSNO $
KCBM 121056Z AUTO 32008KT 10SM CLR 08/00 A3001 RMK AO2 SLP165 T00801002 TSNO $
KCBM 120956Z AUTO 34009KT 10SM CLR 09/00 A2999 RMK AO2 SLP158 T00900002 TSNO $
KCBM 120856Z AUTO 33007KT 10SM CLR 10/01 A2998 RMK AO2 SLP155 T00950007 53005 TSNO $
KCBM 120756Z AUTO 32006KT 10SM SCT210 08/02 A2997 RMK AO2 SLP152 T00840015 TSNO $
KCBM 120656Z AUTO 31005KT 10SM OVC200 08/02 A2996 RMK AO2 SLP148 T00770024 TSNO $
KCBM 120556Z AUTO 32004KT 10SM BKN200 09/03 A2996 RMK AO2 PK WND 36029/34 SLP148 T00870025 10114 20052 401901033 55001 TSNO $
KCBM 120535Z AUTO 35019G29KT 8SM CLR 05/01 A2996 RMK AO2 WSHFT 34 SLP149 TSNO $
KCBM 120456Z AUTO 21004KT 7SM CLR 07/01 A2994 RMK AO2 SLP142 T00700009 TSNO $
KCBM 120356Z AUTO 22003KT 8SM CLR 08/01 A2996 RMK AO2 SLP149 T00840011 TSNO $
KCBM 120256Z AUTO 22007KT 9SM CLR 11/02 A2997 RMK AO2 SLP152 T01100020 58006 TSNO $
KCBM 120156Z AUTO 20006KT 8SM CLR 10/01 A2998 RMK AO2 SLP156 T00950014 TSNO $
KCBM 120056Z AUTO 19004KT 8SM CLR 08/01 A2999 RMK AO2 SLP160 T00780012 TSNO $
KCBM 112356Z AUTO 20005KT 9SM CLR 10/01 A2999 RMK AO2 SLP160 T00970013 10190 20097 57014 TSNO $
KCBM 112256Z AUTO 23004KT 8SM CLR 14/02 A3001 RMK AO2 SLP166 T01420015 TSNO $
KCBM 112156Z AUTO 24006KT 9SM CLR 18/02 A3002 RMK AO2 SLP169 T01780021 TSNO $
KCBM 112056Z AUTO 26008KT 9SM CLR 19/02 A3003 RMK AO2 SLP172 T01860020 57032 TSNO $
KCBM 111956Z AUTO 27007KT 9SM CLR 18/02 A3006 RMK AO2 SLP183 T01830022 TSNO $
KCBM 111856Z AUTO 20005KT 9SM CLR 17/04 A3008 RMK AO2 SLP190 T01680038 TSNO $
KCBM 111756Z AUTO 15003KT 10SM CLR 15/03 A3012 RMK AO2 SLP203 T01500032 10150 21033 58021 TSNO $
KCBM 111656Z AUTO 00000KT 10SM CLR 13/03 A3015 RMK AO2 SLP214 T01260027 TSNO $
KCBM 111556Z AUTO 00000KT 10SM CLR 09/02 A3018 RMK AO2 SLP224 T00920021 TSNO $
KCBM 111456Z AUTO 00000KT 10SM CLR 05/02 A3019 RMK AO2 SLP228 T00520015 58003 $
KCBM 111356Z AUTO 00000KT 10SM CLR 00/M01 A3020 RMK AO2 SLP231 T00021008 $
KCBM 111256Z AUTO 00000KT 10SM CLR M02/M03 A3021 RMK AO2 SLP235 T10241032 $
KCBM 111156Z AUTO 00000KT 10SM CLR M03/M03 A3020 RMK AO2 SLP231 T10291035 10002 21030 55004 $
KCBM 111056Z AUTO 00000KT 10SM CLR M02/M03 A3019 RMK AO2 SLP228 T10221030 $
KCBM 110956Z AUTO 00000KT 10SM CLR M02/M02 A3020 RMK AO2 SLP231 T10171025 $
KCBM 110856Z AUTO 00000KT 10SM CLR M02/M03 A3021 RMK AO2 SLP234 T10161026 55006 $
KCBM 110756Z AUTO 00000KT 10SM CLR M01/M03 A3020 RMK AO2 SLP231 T10121028 $
KCBM 110656Z AUTO 00000KT 10SM CLR 00/M02 A3021 RMK AO2 SLP234 T10031024 $
KCBM 110556Z AUTO 00000KT 10SM CLR M01/M03 A3023 RMK AO2 SLP241 T10101026 10054 21012 401231061 58011 $
KCBM 110456Z AUTO 00000KT 10SM CLR M01/M02 A3024 RMK AO2 SLP244 T10061025 $
KCBM 110356Z AUTO 16003KT 10SM CLR 00/M02 A3025 RMK AO2 SLP248 T00001021 $
KCBM 110256Z AUTO 00000KT 10SM CLR 01/M02 A3026 RMK AO2 SLP252 T00061023 52009 $
KCBM 110156Z AUTO 00000KT 10SM CLR 01/M02 A3025 RMK AO2 SLP249 T00131021 $
KCBM 110056Z AUTO 00000KT 10SM CLR 03/M03 A3023 RMK AO2 SLP242 T00341026 $
KCBM 102356Z AUTO 18004KT 10SM CLR 05/M03 A3023 RMK AO2 SLP242 T00501028 10123 20036 56005 $
KCBM 102256Z AUTO 00000KT 10SM CLR 08/M02 A3023 RMK AO2 SLP242 T00771021 $
KCBM 102156Z AUTO 22004KT 10SM CLR 12/M02 A3023 RMK AO2 SLP241 T01181017 $
KCBM 102056Z AUTO 24006KT 10SM CLR 12/M02 A3025 RMK AO2 SLP248 T01231020 57023 $
KCBM 101956Z AUTO 26011KT 10SM CLR 12/M02 A3026 RMK AO2 SLP251 T01181024 $
KCBM 101856Z AUTO 23007KT 10SM CLR 11/M02 A3029 RMK AO2 SLP262 T01101021 $
KCBM 101756Z AUTO 18007KT 10SM CLR 10/M02 A3032 RMK AO2 SLP272 T01001023 10100 21061 58016 $
KCBM 101656Z AUTO 23005KT 10SM CLR 08/M02 A3035 RMK AO2 SLPNO T00811023 $
KCBM 101556Z AUTO 24003KT 10SM CLR 06/M01 A3036 RMK AO2 SLPNO T00561011 $
KCBM 101456Z AUTO 00000KT 10SM CLR 02/M01 A3036 RMK AO2 SLPNO T00181009 52013 $
KCBM 101356Z AUTO 00000KT 10SM CLR M03/M04 A3035 RMK AO2 SLPNO T10301036 $
KCBM 101256Z AUTO 00000KT 10SM CLR M06/M07 A3034 RMK AO2 SLPNO T10591066 $
KCBM 101156Z AUTO 00000KT 10SM CLR M05/M06 A3033 RMK AO2 SLPNO T10531060 11032 21057 52008 $
KCBM 101056Z AUTO 00000KT 10SM CLR M05/M06 A3032 RMK AO2 SLPNO T10521058 $
KCBM 100956Z AUTO 00000KT 10SM CLR M06/M06 A3031 RMK AO2 SLP269 T10571061 $
KCBM 100856Z AUTO 00000KT 10SM CLR M05/M05 A3030 RMK AO2 SLP265 T10501053 $
KCBM 100756Z AUTO 00000KT 10SM CLR M05/M05 A3029 RMK AO2 SLP262 T10481052 $
KCBM 100656Z AUTO 00000KT 10SM CLR M04/M05 A3028 RMK AO2 SLP258 T10431049 $
KCBM 100556Z AUTO 00000KT 10SM CLR M03/M04 A3028 RMK AO2 SLP258 T10341045 10058 21035 401041061 52016 $
KCBM 100456Z AUTO 00000KT 10SM CLR M03/M04 A3027 RMK AO2 SLP255 T10291045 $
KCBM 100356Z AUTO 00000KT 10SM CLR M02/M04 A3025 RMK AO2 SLP248 T10221042 $
KCBM 100256Z AUTO 00000KT 10SM CLR 02/M03 A3023 RMK AO2 SLP242 T00241027 52027 $
KCBM 100156Z AUTO 32007KT 10SM CLR 04/M02 A3020 RMK AO2 SLP231 T00351025 $
KCBM 100056Z AUTO 31008KT 10SM CLR 05/M02 A3017 RMK AO2 SLP221 T00491024 $
KCBM 092356Z AUTO 29008KT 10SM CLR 06/M02 A3015 RMK AO2 SLP215 T00561018 10104 20052 52039 $
KCBM 092256Z AUTO 29008KT 10SM CLR 07/M01 A3011 RMK AO2 SLP201 T00731014 $
KCBM 092156Z AUTO 28012KT 10SM CLR 09/M01 A3007 RMK AO2 SLP187 T00901011 $
KCBM 092056Z AUTO 29014G20KT 10SM CLR 10/M01 A3003 RMK AO2 SLP173 T00981013 53001 $
KCBM 092027Z AUTO 30015G18KT 10SM CLR 10/M02 A3003 RMK AO2 WSHFT 22 SLP173 $
KCBM 091956Z AUTO 26014G22KT 10SM CLR 10/M02 A3001 RMK AO2 SLP167 T01021018 $
KCBM 091857Z AUTO 24011G17KT 10SM CLR 10/M03 A3002 RMK AO2 WSHFT 50 SLP170 $
KCBM 091856Z AUTO 24012KT 10SM CLR 10/M03 A3002 RMK AO2 SLP170 T00961033 $
KCBM 091819Z AUTO 24013G19KT 10SM CLR 09/M04 A3003 RMK AO2 WSHFT 07 SLP173 $
KCBM 091756Z AUTO 23010KT 10SM CLR 09/M04 A3003 RMK AO2 SLP173 T00861042 10086 21059 58017 $
KCBM 091656Z AUTO 27013G17KT 10SM CLR 07/M05 A3007 RMK AO2 SLP187 T00701050 $
KCBM 091556Z AUTO 26013KT 10SM CLR 05/M05 A3008 RMK AO2 SLP190 T00471054 $